createdAt,value
2022-10-11T00:01:01.617Z,90.43
2022-10-11T00:03:44.191Z,90.34
2022-10-11T00:06:24.199Z,90.25
2022-10-11T00:09:04.166Z,89.73
2022-10-11T00:11:44.480Z,88.72
2022-10-11T00:14:24.470Z,88.82
2022-10-11T00:17:04.417Z,88.53
2022-10-11T00:19:46.953Z,89.17
2022-10-11T00:22:26.920Z,89.07
2022-10-11T00:25:08.693Z,89.77
2022-10-11T00:27:48.704Z,89.58
2022-10-11T00:30:28.686Z,89.72
2022-10-11T00:33:08.601Z,89.91
2022-10-11T00:35:51.416Z,90.25
2022-10-11T00:38:32.175Z,90.81
2022-10-11T00:41:12.257Z,91.01
2022-10-11T00:44:11.571Z,90.03
2022-10-11T00:46:56.618Z,91.06
2022-10-11T00:49:39.591Z,91.00
2022-10-11T00:52:31.208Z,90.83
2022-10-11T00:55:15.162Z,91.66
2022-10-11T00:57:56.316Z,91.85
2022-10-11T01:00:36.602Z,91.40
2022-10-11T01:03:16.706Z,91.54
2022-10-11T01:05:57.746Z,90.72
2022-10-11T01:08:41.501Z,90.95
2022-10-11T01:11:25.995Z,91.04
2022-10-11T01:14:37.020Z,89.64
2022-10-11T01:17:25.401Z,90.52
2022-10-11T01:20:37.650Z,89.00
2022-10-11T01:24:08.973Z,89.27
2022-10-11T01:27:26.019Z,90.18
2022-10-11T01:30:24.080Z,90.14
2022-10-11T01:33:15.817Z,89.68
2022-10-11T01:36:05.142Z,89.91
2022-10-11T01:38:49.678Z,89.47
2022-10-11T01:41:33.710Z,89.92
2022-10-11T01:44:16.939Z,90.10
2022-10-11T01:46:59.450Z,89.45
2022-10-11T01:49:39.424Z,90.49
2022-10-11T01:52:19.350Z,89.94
2022-10-11T01:55:16.116Z,88.86
2022-10-11T01:58:09.620Z,90.16
2022-10-11T02:00:56.030Z,89.45
2022-10-11T02:03:44.695Z,89.00
2022-10-11T02:06:31.790Z,89.61
2022-10-11T02:09:17.830Z,89.42
2022-10-11T02:12:03.429Z,89.40
2022-10-11T02:14:47.999Z,89.78
2022-10-11T02:17:33.558Z,89.81
2022-10-11T02:20:22.210Z,89.97
2022-10-11T02:23:08.434Z,90.44
2022-10-11T02:25:50.100Z,90.82
2022-10-11T02:28:34.723Z,90.62
2022-10-11T02:31:15.767Z,91.00
2022-10-11T02:34:02.888Z,90.28
2022-10-11T02:36:52.746Z,89.91
2022-10-11T02:39:38.319Z,90.68
2022-10-11T02:42:23.402Z,91.14
2022-10-11T02:45:07.902Z,91.43
2022-10-11T02:47:48.490Z,91.57
2022-10-11T02:50:29.807Z,91.03
2022-10-11T02:53:12.399Z,91.27
2022-10-11T02:55:54.217Z,91.26
2022-10-11T02:58:34.130Z,90.40
2022-10-11T03:01:14.155Z,90.24
2022-10-11T03:03:54.120Z,90.39
2022-10-11T03:06:34.247Z,90.23
2022-10-11T03:09:16.809Z,90.39
2022-10-11T03:11:56.780Z,90.45
2022-10-11T03:14:40.450Z,90.69
2022-10-11T03:17:35.649Z,90.79
2022-10-11T03:20:16.759Z,90.93
2022-10-11T03:22:56.702Z,91.20
2022-10-11T03:25:39.467Z,91.24
2022-10-11T03:28:19.644Z,92.06
2022-10-11T03:30:59.959Z,92.22
2022-10-11T03:33:39.939Z,92.13
2022-10-11T03:36:20.311Z,91.99
2022-10-11T03:39:00.266Z,91.73
2022-10-11T03:41:42.774Z,91.83
2022-10-11T03:44:22.887Z,91.85
2022-10-11T03:47:02.878Z,92.22
2022-10-11T03:49:43.899Z,92.11
2022-10-11T03:52:24.022Z,92.63
2022-10-11T03:55:04.143Z,93.56
2022-10-11T03:57:46.729Z,93.33
2022-10-11T04:00:26.776Z,92.86
2022-10-11T04:03:06.844Z,92.36
2022-10-11T04:05:46.794Z,92.00
2022-10-11T04:08:41.544Z,92.13
2022-10-11T04:11:21.487Z,91.98
2022-10-11T04:14:04.149Z,91.63
2022-10-11T04:16:44.130Z,91.36
2022-10-11T04:19:24.101Z,91.48
2022-10-11T04:22:04.083Z,91.56
2022-10-11T04:24:44.008Z,92.39
2022-10-11T04:27:24.014Z,91.74
2022-10-11T04:30:07.347Z,91.66
2022-10-11T04:32:47.817Z,92.08
2022-10-11T04:35:27.839Z,91.44
2022-10-11T04:38:07.803Z,90.97
2022-10-11T04:40:47.785Z,91.01
2022-10-11T04:43:27.800Z,91.26
2022-10-11T04:46:11.683Z,91.30
2022-10-11T04:48:51.981Z,91.65
2022-10-11T04:51:33.771Z,91.44
2022-10-11T04:54:13.721Z,91.95
2022-10-11T04:56:53.736Z,92.15
2022-10-11T04:59:33.890Z,92.56
2022-10-11T05:02:16.507Z,92.67
2022-10-11T05:04:56.514Z,92.49
2022-10-11T05:07:36.549Z,92.93
2022-10-11T05:10:17.745Z,92.29
2022-10-11T05:12:57.733Z,92.72
2022-10-11T05:15:38.865Z,92.53
2022-10-11T05:18:22.848Z,92.36
2022-10-11T05:21:05.543Z,91.39
2022-10-11T05:23:46.557Z,92.06
2022-10-11T05:26:27.975Z,91.56
2022-10-11T05:29:08.990Z,92.02
2022-10-11T05:31:49.114Z,92.47
2022-10-11T05:34:31.789Z,92.20
2022-10-11T05:37:12.717Z,92.35
2022-10-11T05:39:53.996Z,92.96
2022-10-11T05:42:33.999Z,93.16
2022-10-11T05:45:14.051Z,93.09
2022-10-11T05:47:54.254Z,92.59
2022-10-11T05:50:38.398Z,92.00
2022-10-11T05:53:19.447Z,91.90
2022-10-11T05:56:00.200Z,91.97
2022-10-11T05:58:42.210Z,91.52
2022-10-11T06:01:23.905Z,90.93
2022-10-11T06:04:04.900Z,91.80
2022-10-11T06:06:51.787Z,92.07
2022-10-11T06:09:34.833Z,92.64
2022-10-11T06:12:15.927Z,92.52
2022-10-11T06:14:56.005Z,92.58
2022-10-11T06:17:37.218Z,93.02
2022-10-11T06:20:18.679Z,92.59
2022-10-11T06:23:01.402Z,93.36
2022-10-11T06:25:41.463Z,93.87
2022-10-11T06:28:21.575Z,93.12
2022-10-11T06:31:01.724Z,93.23
2022-10-11T06:33:42.918Z,93.92
2022-10-11T06:36:23.104Z,94.41
2022-10-11T06:39:06.381Z,93.36
2022-10-11T06:41:47.754Z,94.23
2022-10-11T06:44:28.404Z,94.43
2022-10-11T06:47:08.583Z,94.05
2022-10-11T06:49:48.828Z,93.32
2022-10-11T06:52:29.912Z,94.04
2022-10-11T06:55:13.064Z,94.81
2022-10-11T06:57:54.127Z,95.26
2022-10-11T07:00:34.232Z,95.45
2022-10-11T07:03:15.319Z,95.12
2022-10-11T07:05:57.914Z,95.61
2022-10-11T07:08:42.096Z,95.70
2022-10-11T07:11:28.395Z,95.46
2022-10-11T07:14:09.549Z,94.81
2022-10-11T07:16:49.637Z,95.14
2022-10-11T07:19:29.920Z,95.43
2022-10-11T07:22:11.395Z,95.80
2022-10-11T07:24:51.505Z,96.12
2022-10-11T07:27:35.228Z,97.46
2022-10-11T07:30:16.494Z,98.51
2022-10-11T07:32:56.680Z,99.06
2022-10-11T07:35:38.443Z,100.00
2022-10-11T07:38:20.092Z,100.00
2022-10-11T07:41:00.266Z,100.00
2022-10-11T07:43:47.092Z,100.00
2022-10-11T07:46:27.254Z,100.00
2022-10-11T07:49:08.328Z,100.00
2022-10-11T07:51:49.439Z,100.00
2022-10-11T07:54:30.536Z,100.00
2022-10-11T07:57:10.582Z,100.00
2022-10-11T07:59:54.180Z,100.00
2022-10-11T08:02:34.314Z,100.00
2022-10-11T08:05:15.514Z,100.00
2022-10-11T08:07:56.575Z,99.73
2022-10-11T08:10:40.789Z,99.47
2022-10-11T08:13:21.918Z,99.97
2022-10-11T08:16:12.904Z,99.83
2022-10-11T08:18:54.436Z,100.00
2022-10-11T08:21:35.092Z,100.00
2022-10-11T08:24:20.704Z,99.84
2022-10-11T08:27:01.816Z,100.00
2022-10-11T08:29:42.001Z,100.00
2022-10-11T08:32:24.576Z,99.35
2022-10-11T08:35:04.664Z,99.40
2022-10-11T08:37:45.681Z,98.37
2022-10-11T08:40:30.461Z,98.01
2022-10-11T08:43:21.908Z,97.13
2022-10-11T08:46:05.275Z,96.84
2022-10-11T08:48:52.037Z,96.88
2022-10-11T08:51:36.363Z,95.12
2022-10-11T08:54:14.400Z,94.38
2022-10-11T08:56:44.645Z,94.34
2022-10-11T08:59:29.303Z,90.95
2022-10-11T09:02:05.393Z,91.57
2022-10-11T09:04:39.076Z,90.95
2022-10-11T09:07:21.864Z,90.78
2022-10-11T09:10:16.876Z,92.03
2022-10-11T09:12:56.402Z,91.35
2022-10-11T09:15:35.376Z,91.21
2022-10-11T09:18:24.802Z,90.52
2022-10-11T09:21:27.769Z,91.92
2022-10-11T09:24:20.086Z,91.61
2022-10-11T09:26:57.812Z,89.35
2022-10-11T09:29:48.822Z,88.54
2022-10-11T09:32:23.570Z,88.65
2022-10-11T09:35:02.480Z,89.32
2022-10-11T09:37:45.121Z,88.61
2022-10-11T09:40:31.122Z,87.92
2022-10-11T09:43:02.904Z,88.47
2022-10-11T09:45:36.538Z,87.71
2022-10-11T09:48:10.077Z,86.02
2022-10-11T09:50:42.025Z,84.49
2022-10-11T09:53:16.674Z,84.03
2022-10-11T09:55:53.883Z,85.87
2022-10-11T09:58:32.793Z,85.45
2022-10-11T10:01:08.194Z,84.26
2022-10-11T10:03:40.202Z,83.33
2022-10-11T10:06:13.391Z,84.10
2022-10-11T10:08:48.175Z,83.73
2022-10-11T10:11:22.647Z,83.02
2022-10-11T10:13:56.052Z,81.14
2022-10-11T10:16:28.905Z,80.23
2022-10-11T10:19:03.513Z,80.37
2022-10-11T10:21:38.115Z,80.47
2022-10-11T10:24:21.113Z,79.77
2022-10-11T10:27:10.761Z,79.57
2022-10-11T10:29:40.813Z,78.49
2022-10-11T10:32:15.507Z,76.14
2022-10-11T10:34:59.423Z,76.14
2022-10-11T10:37:36.536Z,74.93
2022-10-11T10:40:16.829Z,72.67
2022-10-11T10:42:47.719Z,74.29
2022-10-11T10:45:21.814Z,74.68
2022-10-11T10:48:08.342Z,72.50
2022-10-11T10:50:54.600Z,69.48
2022-10-11T10:53:31.674Z,69.12
2022-10-11T10:56:11.261Z,68.43
2022-10-11T10:59:05.457Z,66.90
2022-10-11T11:01:53.813Z,67.16
2022-10-11T11:04:32.099Z,69.18
2022-10-11T11:07:12.020Z,67.15
2022-10-11T11:09:48.394Z,65.71
2022-10-11T11:12:30.636Z,65.88
2022-10-11T11:15:09.322Z,67.54
2022-10-11T11:17:56.796Z,67.40
2022-10-11T11:20:41.743Z,66.78
2022-10-11T11:23:21.094Z,68.06
2022-10-11T11:26:02.814Z,69.02
2022-10-11T11:28:54.617Z,68.86
2022-10-11T11:31:49.880Z,68.89
2022-10-11T11:34:26.488Z,68.14
2022-10-11T11:37:02.924Z,66.97
2022-10-11T11:39:38.661Z,68.55
2022-10-11T11:42:14.304Z,68.35
2022-10-11T11:44:50.355Z,68.34
2022-10-11T11:47:27.656Z,66.17
2022-10-11T11:50:05.629Z,65.77
2022-10-11T11:52:44.384Z,63.73
2022-10-11T11:55:23.190Z,63.10
2022-10-11T11:58:06.941Z,62.90
2022-10-11T12:00:51.917Z,65.19
2022-10-11T12:03:27.414Z,62.88
2022-10-11T12:06:28.806Z,63.11
2022-10-11T12:09:09.818Z,63.02
2022-10-11T12:11:52.394Z,63.52
2022-10-11T12:14:33.069Z,63.91
2022-10-11T12:17:25.520Z,65.35
2022-10-11T12:20:29.271Z,65.06
2022-10-11T12:23:03.128Z,64.99
2022-10-11T12:25:43.361Z,64.33
2022-10-11T12:28:49.009Z,64.27
2022-10-11T12:31:26.539Z,64.71
2022-10-11T12:34:25.442Z,65.99
2022-10-11T12:37:04.440Z,65.57
2022-10-11T12:39:56.255Z,65.15
2022-10-11T12:42:32.024Z,64.89
2022-10-11T12:45:33.129Z,62.24
2022-10-11T12:48:22.928Z,62.82
2022-10-11T12:51:07.687Z,62.76
2022-10-11T12:54:27.580Z,62.55
2022-10-11T12:57:20.551Z,62.65
2022-10-11T12:59:50.351Z,64.32
2022-10-11T13:02:30.285Z,64.66
2022-10-11T13:05:10.750Z,63.77
2022-10-11T13:07:45.224Z,64.53
2022-10-11T13:10:18.405Z,65.96
2022-10-11T13:12:50.660Z,64.55
2022-10-11T13:15:24.354Z,64.66
2022-10-11T13:18:00.432Z,63.35
2022-10-11T13:20:35.249Z,63.05
2022-10-11T13:23:25.679Z,62.75
2022-10-11T13:25:58.947Z,63.04
2022-10-11T13:28:36.516Z,64.69
2022-10-11T13:31:07.059Z,65.08
2022-10-11T13:33:43.622Z,64.79
2022-10-11T13:36:18.549Z,65.40
2022-10-11T13:39:01.837Z,64.47
2022-10-11T13:41:35.196Z,65.27
2022-10-11T13:44:07.982Z,64.23
2022-10-11T13:46:41.934Z,64.20
2022-10-11T13:49:31.528Z,63.59
2022-10-11T13:52:02.690Z,64.29
2022-10-11T13:55:00.392Z,63.59
2022-10-11T13:57:39.342Z,64.26
2022-10-11T14:00:23.482Z,63.25
2022-10-11T14:03:00.934Z,63.25
2022-10-11T14:05:35.165Z,63.52
2022-10-11T14:08:10.282Z,63.56
2022-10-11T14:10:51.675Z,62.62
2022-10-11T14:13:27.974Z,63.38
2022-10-11T14:16:07.558Z,63.00
2022-10-11T14:18:47.599Z,63.28
2022-10-11T14:21:37.930Z,62.86
2022-10-11T14:24:10.633Z,62.96
2022-10-11T14:26:46.070Z,63.55
2022-10-11T14:29:20.674Z,63.24
2022-10-11T14:31:52.679Z,62.56
2022-10-11T14:34:25.876Z,62.18
2022-10-11T14:36:56.770Z,62.82
2022-10-11T14:39:28.438Z,63.59
2022-10-11T14:42:03.727Z,63.14
2022-10-11T14:44:34.446Z,63.31
2022-10-11T14:47:06.679Z,63.54
2022-10-11T14:49:39.828Z,63.27
2022-10-11T14:52:14.602Z,61.93
2022-10-11T14:54:45.377Z,62.71
2022-10-11T14:57:17.658Z,62.95
2022-10-11T14:59:47.450Z,63.39
2022-10-11T15:02:22.443Z,63.70
2022-10-11T15:04:52.159Z,63.94
2022-10-11T15:07:25.421Z,63.62
2022-10-11T15:09:56.119Z,63.61
2022-10-11T15:12:29.454Z,63.34
2022-10-11T15:14:59.210Z,64.02
2022-10-11T15:17:31.023Z,63.87
2022-10-11T15:20:00.828Z,63.97
2022-10-11T15:22:34.412Z,63.63
2022-10-11T15:25:05.300Z,64.17
2022-10-11T15:27:38.584Z,64.54
2022-10-11T15:30:15.436Z,64.89
2022-10-11T15:32:49.301Z,64.17
2022-10-11T15:35:20.247Z,64.38
2022-10-11T15:37:50.134Z,64.34
2022-10-11T15:40:22.237Z,64.71
2022-10-11T15:42:56.136Z,64.95
2022-10-11T15:45:29.752Z,65.45
2022-10-11T15:48:02.072Z,65.70
2022-10-11T15:50:39.564Z,65.52
2022-10-11T15:53:14.584Z,66.00
2022-10-11T15:55:46.383Z,66.11
2022-10-11T15:58:23.878Z,65.98
2022-10-11T16:00:57.038Z,66.73
2022-10-11T16:03:29.650Z,67.31
2022-10-11T16:06:04.856Z,68.05
2022-10-11T16:08:35.224Z,68.78
2022-10-11T16:11:07.001Z,68.96
2022-10-11T16:13:41.402Z,69.24
2022-10-11T16:16:12.443Z,68.49
2022-10-11T16:18:43.351Z,68.73
2022-10-11T16:21:17.879Z,68.98
2022-10-11T16:23:51.470Z,68.83
2022-10-11T16:26:22.216Z,69.05
2022-10-11T16:28:56.761Z,69.24
2022-10-11T16:31:26.598Z,69.69
2022-10-11T16:33:58.337Z,70.46
2022-10-11T16:36:36.427Z,71.07
2022-10-11T16:39:09.814Z,71.59
2022-10-11T16:41:44.520Z,71.82
2022-10-11T16:44:24.938Z,71.92
2022-10-11T16:46:55.838Z,72.33
2022-10-11T16:49:28.961Z,72.37
2022-10-11T16:52:02.329Z,72.32
2022-10-11T16:54:32.933Z,72.93
2022-10-11T16:57:03.634Z,72.68
2022-10-11T16:59:39.380Z,72.66
2022-10-11T17:02:18.390Z,72.77
2022-10-11T17:04:50.665Z,73.53
2022-10-11T17:07:22.128Z,73.60
2022-10-11T17:09:52.774Z,74.04
2022-10-11T17:12:27.394Z,74.05
2022-10-11T17:15:00.756Z,73.91
2022-10-11T17:17:32.450Z,74.20
2022-10-11T17:20:04.981Z,74.21
2022-10-11T17:22:34.756Z,74.25
2022-10-11T17:25:05.491Z,74.53
2022-10-11T17:27:38.588Z,74.21
2022-10-11T17:30:12.935Z,74.42
2022-10-11T17:32:43.102Z,74.84
2022-10-11T17:35:13.852Z,74.90
2022-10-11T17:37:47.490Z,74.95
2022-10-11T17:40:18.586Z,75.33
2022-10-11T17:42:48.280Z,75.89
2022-10-11T17:45:21.376Z,76.11
2022-10-11T17:47:52.179Z,76.46
2022-10-11T17:50:25.484Z,76.40
2022-10-11T17:52:56.545Z,76.62
2022-10-11T17:55:26.519Z,77.07
2022-10-11T17:57:56.227Z,77.23
2022-10-11T18:00:29.561Z,77.22
2022-10-11T18:02:59.339Z,77.61
2022-10-11T18:05:30.064Z,78.05
2022-10-11T18:08:03.539Z,77.99
2022-10-11T18:10:35.537Z,78.05
2022-10-11T18:13:12.037Z,77.97
2022-10-11T18:15:53.387Z,78.28
2022-10-11T18:18:23.481Z,78.70
2022-10-11T18:20:57.539Z,78.63
2022-10-11T18:23:29.345Z,78.60
2022-10-11T18:26:00.993Z,78.98
2022-10-11T18:28:31.866Z,79.32
2022-10-11T18:31:13.018Z,78.67
2022-10-11T18:33:45.600Z,79.01
2022-10-11T18:36:18.342Z,79.38
2022-10-11T18:38:49.445Z,78.95
2022-10-11T18:41:21.728Z,79.06
2022-10-11T18:44:03.230Z,78.45
2022-10-11T18:46:39.346Z,78.66
2022-10-11T18:49:11.417Z,78.92
2022-10-11T18:51:44.534Z,78.98
2022-10-11T18:54:18.372Z,79.23
2022-10-11T18:56:51.149Z,79.87
2022-10-11T18:59:22.062Z,80.04
2022-10-11T19:01:56.521Z,79.73
2022-10-11T19:04:29.496Z,81.50
2022-10-11T19:07:00.218Z,79.67
2022-10-11T19:09:31.946Z,79.35
2022-10-11T19:12:01.680Z,79.58
2022-10-11T19:14:33.145Z,79.85
2022-10-11T19:17:06.581Z,80.06
2022-10-11T19:19:37.718Z,80.23
2022-10-11T19:22:08.485Z,80.65
2022-10-11T19:24:43.700Z,80.13
2022-10-11T19:27:14.629Z,79.98
2022-10-11T19:29:47.558Z,80.08
2022-10-11T19:32:20.920Z,80.29
2022-10-11T19:34:53.350Z,80.52
2022-10-11T19:37:26.658Z,80.71
2022-10-11T19:39:56.429Z,81.33
2022-10-11T19:42:28.217Z,81.39
2022-10-11T19:45:01.504Z,80.64
2022-10-11T19:47:35.846Z,80.57
2022-10-11T19:50:05.675Z,80.42
2022-10-11T19:52:35.453Z,80.47
2022-10-11T19:55:07.773Z,80.73
2022-10-11T19:57:38.547Z,81.25
2022-10-11T20:00:12.362Z,80.98
2022-10-11T20:02:48.175Z,80.81
2022-10-11T20:05:18.204Z,81.12
2022-10-11T20:07:47.929Z,81.34
2022-10-11T20:10:19.915Z,81.42
2022-10-11T20:12:50.708Z,82.00
2022-10-11T20:15:25.778Z,82.04
2022-10-11T20:18:00.575Z,81.69
2022-10-11T20:20:33.490Z,82.46
2022-10-11T20:23:05.269Z,82.72
2022-10-11T20:25:38.551Z,83.00
2022-10-11T20:28:08.410Z,83.59
2022-10-11T20:30:44.489Z,83.03
2022-10-11T20:33:23.122Z,83.07
2022-10-11T20:36:01.271Z,83.96
2022-10-11T20:38:34.835Z,84.40
2022-10-11T20:41:08.232Z,84.31
2022-10-11T20:43:38.239Z,84.60
2022-10-11T20:46:10.801Z,84.21
2022-10-11T20:48:44.599Z,82.98
2022-10-11T20:51:18.036Z,82.88
2022-10-11T20:53:52.387Z,83.37
2022-10-11T20:56:26.798Z,83.43
2022-10-11T20:59:02.892Z,83.77
2022-10-11T21:01:40.852Z,83.71
2022-10-11T21:04:19.363Z,83.24
2022-10-11T21:06:52.691Z,83.59
2022-10-11T21:09:23.926Z,83.85
2022-10-11T21:11:54.771Z,83.85
2022-10-11T21:14:25.696Z,83.59
2022-10-11T21:16:56.527Z,83.98
2022-10-11T21:19:29.025Z,84.25
2022-10-11T21:21:58.731Z,85.67
2022-10-11T21:24:28.536Z,85.40
2022-10-11T21:27:00.645Z,84.59
2022-10-11T21:29:30.799Z,84.66
2022-10-11T21:32:00.647Z,84.48
2022-10-11T21:34:33.055Z,84.00
2022-10-11T21:37:02.751Z,84.12
2022-10-11T21:39:32.580Z,84.29
2022-10-11T21:42:02.244Z,85.36
2022-10-11T21:44:33.051Z,85.79
2022-10-11T21:47:07.023Z,86.30
2022-10-11T21:49:39.893Z,86.01
2022-10-11T21:52:09.628Z,86.55
2022-10-11T21:54:39.461Z,86.85
2022-10-11T21:57:09.134Z,86.66
2022-10-11T21:59:38.814Z,86.27
2022-10-11T22:02:08.502Z,86.47
2022-10-11T22:04:40.792Z,86.54
2022-10-11T22:07:10.506Z,86.93
2022-10-11T22:09:40.200Z,86.34
2022-10-11T22:12:10.357Z,86.73
2022-10-11T22:14:40.070Z,86.05
2022-10-11T22:17:09.783Z,85.23
2022-10-11T22:19:42.105Z,84.35
2022-10-11T22:22:11.852Z,84.21
2022-10-11T22:24:41.531Z,84.88
2022-10-11T22:27:11.203Z,84.88
2022-10-11T22:29:40.934Z,85.17
2022-10-11T22:32:10.587Z,85.00
2022-10-11T22:34:43.153Z,84.98
2022-10-11T22:37:12.802Z,85.61
2022-10-11T22:39:42.509Z,85.67
2022-10-11T22:42:12.237Z,86.20
2022-10-11T22:44:42.002Z,85.52
2022-10-11T22:47:11.671Z,85.39
2022-10-11T22:49:44.076Z,85.28
2022-10-11T22:52:13.791Z,84.87
2022-10-11T22:54:43.495Z,84.41
2022-10-11T22:57:13.355Z,83.92
2022-10-11T22:59:43.123Z,83.58
2022-10-11T23:02:13.018Z,83.55
2022-10-11T23:04:45.398Z,84.42
2022-10-11T23:07:15.177Z,83.96
2022-10-11T23:09:44.908Z,84.36
2022-10-11T23:12:14.571Z,84.60
2022-10-11T23:14:44.266Z,84.44
2022-10-11T23:17:13.939Z,84.11
2022-10-11T23:19:46.269Z,84.03
2022-10-11T23:22:16.003Z,84.06
2022-10-11T23:24:45.723Z,84.63
2022-10-11T23:27:15.390Z,84.67
2022-10-11T23:29:45.113Z,85.15
2022-10-11T23:32:14.864Z,85.78
2022-10-11T23:34:47.176Z,85.53
2022-10-11T23:37:16.848Z,85.28
2022-10-11T23:39:46.765Z,85.00
2022-10-11T23:42:16.549Z,84.14
2022-10-11T23:44:46.293Z,83.88
2022-10-11T23:47:16.015Z,83.94
2022-10-11T23:49:48.415Z,83.63
2022-10-11T23:52:18.133Z,83.64
2022-10-11T23:54:47.887Z,83.44
2022-10-11T23:57:17.598Z,83.29
2022-10-11T23:59:47.293Z,83.13
